EGAE/LDY METAR and TAF weather

Enter ICAO airport designator
Station Type Date Time Source
EGAE METAR 2019/04/18 20:20 UTC NOAA

EGAE 182020Z 28004KT 200V330 8000 FEW035 13/08 Q1025


Station Type Date Time Source
EGAE Decoded METAR 2019/04/18 20:20 UTC NOAA

Eglinton / Londonderr, United Kingdom (EGAE) 55-03N 007-09W
Apr 18, 2019 - 04:20 PM EDT / 2019.04.18 2020 UTC
Wind: from the W (280 degrees) at 5 MPH (4 KT) (direction variable):0
Visibility: 4 mile(s):0
Sky conditions: mostly clear
Temperature: 55 F (13 C)
Dew Point: 46 F (8 C)
Relative Humidity: 71%
Pressure (altimeter): 30.27 in. Hg (1025 hPa)
ob: EGAE 182020Z 28004KT 200V330 8000 FEW035 13/08 Q1025
cycle: 20

Station Type Date Time Source
EGAE TAF UTC NOAA

Error!

Example: see airport list